sensor_id;sensor_type;location;lat;lon;timestamp;temperature;humidity
52615;DHT22;38508;53.158;6.614;2022-12-07T00:00:41;5.60;99.90
52615;DHT22;38508;53.158;6.614;2022-12-07T00:03:07;5.60;99.90
52615;DHT22;38508;53.158;6.614;2022-12-07T00:05:32;5.70;99.90
52615;DHT22;38508;53.158;6.614;2022-12-07T00:07:58;5.80;99.90
52615;DHT22;38508;53.158;6.614;2022-12-07T00:10:24;5.80;99.90
52615;DHT22;38508;53.158;6.614;2022-12-07T00:12:49;5.90;99.90
52615;DHT22;38508;53.158;6.614;2022-12-07T00:15:15;5.90;99.90
52615;DHT22;38508;53.158;6.614;2022-12-07T00:17:41;5.90;99.90
52615;DHT22;38508;53.158;6.614;2022-12-07T00:20:07;5.90;99.90
52615;DHT22;38508;53.158;6.614;2022-12-07T00:22:33;5.90;99.90
52615;DHT22;38508;53.158;6.614;2022-12-07T00:24:58;5.90;99.90
52615;DHT22;38508;53.158;6.614;2022-12-07T00:27:24;6.00;99.90
52615;DHT22;38508;53.158;6.614;2022-12-07T00:29:50;6.10;99.90
52615;DHT22;38508;53.158;6.614;2022-12-07T00:32:15;6.10;99.90
52615;DHT22;38508;53.158;6.614;2022-12-07T00:34:41;6.10;99.90
52615;DHT22;38508;53.158;6.614;2022-12-07T00:37:06;6.10;99.90
52615;DHT22;38508;53.158;6.614;2022-12-07T00:39:32;6.20;99.90
52615;DHT22;38508;53.158;6.614;2022-12-07T00:41:58;6.20;99.90
52615;DHT22;38508;53.158;6.614;2022-12-07T00:44:23;6.10;99.90
52615;DHT22;38508;53.158;6.614;2022-12-07T00:46:49;6.10;99.90
52615;DHT22;38508;53.158;6.614;2022-12-07T00:49:15;6.10;99.90
52615;DHT22;38508;53.158;6.614;2022-12-07T00:51:40;6.10;99.90
52615;DHT22;38508;53.158;6.614;2022-12-07T00:54:06;6.10;99.90
52615;DHT22;38508;53.158;6.614;2022-12-07T00:56:32;6.00;99.90
52615;DHT22;38508;53.158;6.614;2022-12-07T00:59:02;6.00;99.90
52615;DHT22;38508;53.158;6.614;2022-12-07T01:01:30;5.80;99.90
52615;DHT22;38508;53.158;6.614;2022-12-07T01:03:56;5.60;99.90
52615;DHT22;38508;53.158;6.614;2022-12-07T01:06:23;5.80;99.90
52615;DHT22;38508;53.158;6.614;2022-12-07T01:08:50;5.80;99.90
52615;DHT22;38508;53.158;6.614;2022-12-07T01:11:18;5.90;99.90
52615;DHT22;38508;53.158;6.614;2022-12-07T01:13:44;5.90;99.90
52615;DHT22;38508;53.158;6.614;2022-12-07T01:16:13;6.00;99.90
52615;DHT22;38508;53.158;6.614;2022-12-07T01:18:40;6.10;99.90
52615;DHT22;38508;53.158;6.614;2022-12-07T01:21:09;6.20;99.90
52615;DHT22;38508;53.158;6.614;2022-12-07T01:23:36;6.30;99.90
52615;DHT22;38508;53.158;6.614;2022-12-07T01:26:05;6.40;99.90
52615;DHT22;38508;53.158;6.614;2022-12-07T01:28:31;6.30;99.90
52615;DHT22;38508;53.158;6.614;2022-12-07T01:31:05;6.40;99.90
52615;DHT22;38508;53.158;6.614;2022-12-07T01:33:33;6.50;99.90
52615;DHT22;38508;53.158;6.614;2022-12-07T01:36:19;6.50;99.90
52615;DHT22;38508;53.158;6.614;2022-12-07T01:38:46;6.50;99.90
52615;DHT22;38508;53.158;6.614;2022-12-07T01:41:13;6.30;99.90
52615;DHT22;38508;53.158;6.614;2022-12-07T01:51:47;6.20;99.90
52615;DHT22;38508;53.158;6.614;2022-12-07T01:54:14;6.10;99.90
52615;DHT22;38508;53.158;6.614;2022-12-07T01:56:46;6.30;99.90
52615;DHT22;38508;53.158;6.614;2022-12-07T01:59:14;6.30;99.90
52615;DHT22;38508;53.158;6.614;2022-12-07T02:01:41;6.30;99.90
52615;DHT22;38508;53.158;6.614;2022-12-07T02:04:07;6.40;99.90
52615;DHT22;38508;53.158;6.614;2022-12-07T02:06:33;6.40;99.90
52615;DHT22;38508;53.158;6.614;2022-12-07T02:09:00;6.50;99.90
52615;DHT22;38508;53.158;6.614;2022-12-07T02:11:25;6.50;99.90
52615;DHT22;38508;53.158;6.614;2022-12-07T02:13:51;6.60;99.90
52615;DHT22;38508;53.158;6.614;2022-12-07T02:16:38;6.60;99.90
52615;DHT22;38508;53.158;6.614;2022-12-07T02:19:36;6.60;99.90
52615;DHT22;38508;53.158;6.614;2022-12-07T02:27:52;6.40;99.90
52615;DHT22;38508;53.158;6.614;2022-12-07T02:30:22;6.40;99.90
52615;DHT22;38508;53.158;6.614;2022-12-07T02:33:10;6.20;99.90
52615;DHT22;38508;53.158;6.614;2022-12-07T02:38:27;6.20;99.90
52615;DHT22;38508;53.158;6.614;2022-12-07T02:40:57;6.30;99.90
52615;DHT22;38508;53.158;6.614;2022-12-07T02:43:40;6.30;99.90
52615;DHT22;38508;53.158;6.614;2022-12-07T02:46:10;6.20;99.90
52615;DHT22;38508;53.158;6.614;2022-12-07T02:48:38;6.20;99.90
52615;DHT22;38508;53.158;6.614;2022-12-07T02:51:04;6.10;99.90
52615;DHT22;38508;53.158;6.614;2022-12-07T02:53:39;5.90;99.90
52615;DHT22;38508;53.158;6.614;2022-12-07T03:16:07;6.30;99.90
52615;DHT22;38508;53.158;6.614;2022-12-07T03:18:38;6.20;99.90
52615;DHT22;38508;53.158;6.614;2022-12-07T03:21:10;6.20;99.90
52615;DHT22;38508;53.158;6.614;2022-12-07T03:23:39;6.30;99.90
52615;DHT22;38508;53.158;6.614;2022-12-07T03:26:08;6.30;99.90
52615;DHT22;38508;53.158;6.614;2022-12-07T03:28:40;6.40;99.90
52615;DHT22;38508;53.158;6.614;2022-12-07T03:31:12;6.40;99.90
52615;DHT22;38508;53.158;6.614;2022-12-07T03:33:49;6.20;99.90
52615;DHT22;38508;53.158;6.614;2022-12-07T03:36:23;5.90;99.90
52615;DHT22;38508;53.158;6.614;2022-12-07T03:39:01;5.80;99.90
52615;DHT22;38508;53.158;6.614;2022-12-07T03:41:31;5.80;99.90
52615;DHT22;38508;53.158;6.614;2022-12-07T03:43:59;6.00;99.90
52615;DHT22;38508;53.158;6.614;2022-12-07T03:50:00;6.30;99.90
52615;DHT22;38508;53.158;6.614;2022-12-07T03:52:30;6.40;99.90
52615;DHT22;38508;53.158;6.614;2022-12-07T03:55:11;6.40;99.90
52615;DHT22;38508;53.158;6.614;2022-12-07T03:57:42;6.50;99.90
52615;DHT22;38508;53.158;6.614;2022-12-07T04:00:10;6.50;99.90
52615;DHT22;38508;53.158;6.614;2022-12-07T04:02:36;6.50;99.90
52615;DHT22;38508;53.158;6.614;2022-12-07T04:05:02;6.40;99.90
52615;DHT22;38508;53.158;6.614;2022-12-07T04:07:28;6.20;99.90
52615;DHT22;38508;53.158;6.614;2022-12-07T04:09:53;6.20;99.90
52615;DHT22;38508;53.158;6.614;2022-12-07T04:12:21;6.30;99.90
52615;DHT22;38508;53.158;6.614;2022-12-07T04:14:46;6.30;99.90
52615;DHT22;38508;53.158;6.614;2022-12-07T04:17:12;6.40;99.90
52615;DHT22;38508;53.158;6.614;2022-12-07T04:19:38;6.40;99.90
52615;DHT22;38508;53.158;6.614;2022-12-07T04:22:04;6.40;99.90
52615;DHT22;38508;53.158;6.614;2022-12-07T04:24:30;6.40;99.90
52615;DHT22;38508;53.158;6.614;2022-12-07T04:26:56;6.40;99.90
52615;DHT22;38508;53.158;6.614;2022-12-07T04:29:22;6.30;99.90
52615;DHT22;38508;53.158;6.614;2022-12-07T04:31:49;6.20;99.90
52615;DHT22;38508;53.158;6.614;2022-12-07T04:34:15;6.10;99.90
52615;DHT22;38508;53.158;6.614;2022-12-07T04:36:42;6.10;99.90
52615;DHT22;38508;53.158;6.614;2022-12-07T04:39:13;6.20;99.90
52615;DHT22;38508;53.158;6.614;2022-12-07T04:41:39;6.10;99.90
52615;DHT22;38508;53.158;6.614;2022-12-07T04:44:04;6.00;99.90
52615;DHT22;38508;53.158;6.614;2022-12-07T04:46:33;6.10;99.90
52615;DHT22;38508;53.158;6.614;2022-12-07T04:48:59;5.90;99.90
52615;DHT22;38508;53.158;6.614;2022-12-07T04:51:27;5.80;99.90
52615;DHT22;38508;53.158;6.614;2022-12-07T04:53:53;5.80;99.90
52615;DHT22;38508;53.158;6.614;2022-12-07T04:56:19;5.70;99.90
52615;DHT22;38508;53.158;6.614;2022-12-07T04:58:46;5.80;99.90
52615;DHT22;38508;53.158;6.614;2022-12-07T05:01:13;5.80;99.90
52615;DHT22;38508;53.158;6.614;2022-12-07T05:03:38;5.80;99.90
52615;DHT22;38508;53.158;6.614;2022-12-07T05:06:05;5.80;99.90
52615;DHT22;38508;53.158;6.614;2022-12-07T05:08:33;5.80;99.90
52615;DHT22;38508;53.158;6.614;2022-12-07T05:10:59;5.90;99.90
52615;DHT22;38508;53.158;6.614;2022-12-07T05:13:24;6.00;99.90
52615;DHT22;38508;53.158;6.614;2022-12-07T05:15:50;5.90;99.90
52615;DHT22;38508;53.158;6.614;2022-12-07T05:18:16;5.90;99.90
52615;DHT22;38508;53.158;6.614;2022-12-07T05:20:42;5.90;99.90
52615;DHT22;38508;53.158;6.614;2022-12-07T05:23:08;5.80;99.90
52615;DHT22;38508;53.158;6.614;2022-12-07T05:25:34;5.90;99.90
52615;DHT22;38508;53.158;6.614;2022-12-07T05:27:59;5.80;99.90
52615;DHT22;38508;53.158;6.614;2022-12-07T05:30:27;5.70;99.90
52615;DHT22;38508;53.158;6.614;2022-12-07T05:32:53;5.60;99.90
52615;DHT22;38508;53.158;6.614;2022-12-07T05:35:19;5.50;99.90
52615;DHT22;38508;53.158;6.614;2022-12-07T05:37:45;5.50;99.90
52615;DHT22;38508;53.158;6.614;2022-12-07T05:40:11;5.50;99.90
52615;DHT22;38508;53.158;6.614;2022-12-07T05:42:38;5.40;99.90
52615;DHT22;38508;53.158;6.614;2022-12-07T05:45:04;5.40;99.90
52615;DHT22;38508;53.158;6.614;2022-12-07T05:47:30;5.30;99.90
52615;DHT22;38508;53.158;6.614;2022-12-07T05:49:56;5.30;99.90
52615;DHT22;38508;53.158;6.614;2022-12-07T05:52:22;5.30;99.90
52615;DHT22;38508;53.158;6.614;2022-12-07T05:54:48;5.30;99.90
52615;DHT22;38508;53.158;6.614;2022-12-07T05:57:13;5.30;99.90
52615;DHT22;38508;53.158;6.614;2022-12-07T05:59:39;5.30;99.90
52615;DHT22;38508;53.158;6.614;2022-12-07T06:02:07;5.20;99.90
52615;DHT22;38508;53.158;6.614;2022-12-07T06:04:36;5.20;99.90
52615;DHT22;38508;53.158;6.614;2022-12-07T06:07:02;5.20;99.90
52615;DHT22;38508;53.158;6.614;2022-12-07T06:09:28;5.20;99.90
52615;DHT22;38508;53.158;6.614;2022-12-07T06:11:55;5.30;99.90
52615;DHT22;38508;53.158;6.614;2022-12-07T06:14:39;5.20;99.90
52615;DHT22;38508;53.158;6.614;2022-12-07T06:17:05;5.30;99.90
52615;DHT22;38508;53.158;6.614;2022-12-07T06:19:31;5.20;99.90
52615;DHT22;38508;53.158;6.614;2022-12-07T06:21:57;5.10;99.90
52615;DHT22;38508;53.158;6.614;2022-12-07T06:24:23;5.10;99.90
52615;DHT22;38508;53.158;6.614;2022-12-07T06:26:49;5.10;99.90
52615;DHT22;38508;53.158;6.614;2022-12-07T06:29:16;4.90;99.90
52615;DHT22;38508;53.158;6.614;2022-12-07T06:31:42;5.10;99.90
52615;DHT22;38508;53.158;6.614;2022-12-07T06:34:13;5.10;99.90
52615;DHT22;38508;53.158;6.614;2022-12-07T06:36:40;5.10;99.90
52615;DHT22;38508;53.158;6.614;2022-12-07T06:39:06;5.10;99.90
52615;DHT22;38508;53.158;6.614;2022-12-07T06:41:37;5.20;99.90
52615;DHT22;38508;53.158;6.614;2022-12-07T06:44:04;5.20;99.90
52615;DHT22;38508;53.158;6.614;2022-12-07T06:46:29;5.30;99.90
52615;DHT22;38508;53.158;6.614;2022-12-07T06:48:55;5.30;99.90
52615;DHT22;38508;53.158;6.614;2022-12-07T06:51:21;5.30;99.90
52615;DHT22;38508;53.158;6.614;2022-12-07T06:53:47;5.30;99.90
52615;DHT22;38508;53.158;6.614;2022-12-07T06:56:12;5.30;99.90
52615;DHT22;38508;53.158;6.614;2022-12-07T06:58:39;5.30;99.90
52615;DHT22;38508;53.158;6.614;2022-12-07T07:01:12;5.30;99.90
52615;DHT22;38508;53.158;6.614;2022-12-07T07:03:38;5.40;99.90
52615;DHT22;38508;53.158;6.614;2022-12-07T07:06:04;5.30;99.90
52615;DHT22;38508;53.158;6.614;2022-12-07T07:08:30;5.30;99.90
52615;DHT22;38508;53.158;6.614;2022-12-07T07:10:56;5.10;99.90
52615;DHT22;38508;53.158;6.614;2022-12-07T07:13:22;5.10;99.90
52615;DHT22;38508;53.158;6.614;2022-12-07T07:15:48;5.00;99.90
52615;DHT22;38508;53.158;6.614;2022-12-07T07:18:13;5.00;99.90
52615;DHT22;38508;53.158;6.614;2022-12-07T07:20:39;4.70;99.90
52615;DHT22;38508;53.158;6.614;2022-12-07T07:23:05;4.70;99.90
52615;DHT22;38508;53.158;6.614;2022-12-07T07:25:32;4.50;99.90
52615;DHT22;38508;53.158;6.614;2022-12-07T07:27:57;4.50;99.90
52615;DHT22;38508;53.158;6.614;2022-12-07T07:30:23;4.60;99.90
52615;DHT22;38508;53.158;6.614;2022-12-07T07:32:49;4.70;99.90
52615;DHT22;38508;53.158;6.614;2022-12-07T07:35:15;4.80;99.90
52615;DHT22;38508;53.158;6.614;2022-12-07T07:37:41;4.90;99.90
52615;DHT22;38508;53.158;6.614;2022-12-07T07:40:08;4.90;99.90
52615;DHT22;38508;53.158;6.614;2022-12-07T07:42:34;5.10;99.90
52615;DHT22;38508;53.158;6.614;2022-12-07T07:45:00;5.10;99.90
52615;DHT22;38508;53.158;6.614;2022-12-07T07:47:25;5.30;99.90
52615;DHT22;38508;53.158;6.614;2022-12-07T07:49:51;5.30;99.90
52615;DHT22;38508;53.158;6.614;2022-12-07T07:52:17;5.30;99.90
52615;DHT22;38508;53.158;6.614;2022-12-07T07:54:42;5.30;99.90
52615;DHT22;38508;53.158;6.614;2022-12-07T07:57:08;5.40;99.90
52615;DHT22;38508;53.158;6.614;2022-12-07T07:59:34;5.40;99.90
52615;DHT22;38508;53.158;6.614;2022-12-07T08:01:59;5.40;99.90
52615;DHT22;38508;53.158;6.614;2022-12-07T08:04:25;5.50;99.90
52615;DHT22;38508;53.158;6.614;2022-12-07T08:06:51;5.50;99.90
52615;DHT22;38508;53.158;6.614;2022-12-07T08:09:17;5.40;99.90
52615;DHT22;38508;53.158;6.614;2022-12-07T08:11:42;5.40;99.90
52615;DHT22;38508;53.158;6.614;2022-12-07T08:14:10;5.40;99.90
52615;DHT22;38508;53.158;6.614;2022-12-07T08:16:36;5.40;99.90
52615;DHT22;38508;53.158;6.614;2022-12-07T08:19:04;5.40;99.90
52615;DHT22;38508;53.158;6.614;2022-12-07T08:21:30;5.30;99.90
52615;DHT22;38508;53.158;6.614;2022-12-07T08:23:57;5.40;99.90
52615;DHT22;38508;53.158;6.614;2022-12-07T08:26:22;5.40;99.90
52615;DHT22;38508;53.158;6.614;2022-12-07T08:28:48;5.40;99.90
52615;DHT22;38508;53.158;6.614;2022-12-07T08:31:18;5.40;99.90
52615;DHT22;38508;53.158;6.614;2022-12-07T08:33:47;5.40;99.90
52615;DHT22;38508;53.158;6.614;2022-12-07T08:36:13;5.40;99.90
52615;DHT22;38508;53.158;6.614;2022-12-07T08:38:40;5.50;99.90
52615;DHT22;38508;53.158;6.614;2022-12-07T08:41:07;5.60;99.90
52615;DHT22;38508;53.158;6.614;2022-12-07T08:43:34;5.50;99.90
52615;DHT22;38508;53.158;6.614;2022-12-07T08:46:04;5.30;99.90
52615;DHT22;38508;53.158;6.614;2022-12-07T08:48:32;5.20;99.90
52615;DHT22;38508;53.158;6.614;2022-12-07T08:51:01;5.20;99.90
52615;DHT22;38508;53.158;6.614;2022-12-07T08:53:28;5.20;99.90
52615;DHT22;38508;53.158;6.614;2022-12-07T08:55:56;5.20;99.90
52615;DHT22;38508;53.158;6.614;2022-12-07T08:58:22;5.20;99.90
52615;DHT22;38508;53.158;6.614;2022-12-07T09:00:48;5.20;99.90
52615;DHT22;38508;53.158;6.614;2022-12-07T09:03:14;5.10;99.90
52615;DHT22;38508;53.158;6.614;2022-12-07T09:05:39;5.10;99.90
52615;DHT22;38508;53.158;6.614;2022-12-07T09:08:06;5.10;99.90
52615;DHT22;38508;53.158;6.614;2022-12-07T09:10:32;5.20;99.90
52615;DHT22;38508;53.158;6.614;2022-12-07T09:12:58;5.30;99.90
52615;DHT22;38508;53.158;6.614;2022-12-07T09:15:28;5.50;99.90
52615;DHT22;38508;53.158;6.614;2022-12-07T09:17:54;5.70;99.90
52615;DHT22;38508;53.158;6.614;2022-12-07T09:20:19;5.80;99.90
52615;DHT22;38508;53.158;6.614;2022-12-07T09:22:45;5.80;99.90
52615;DHT22;38508;53.158;6.614;2022-12-07T09:25:11;5.70;99.90
52615;DHT22;38508;53.158;6.614;2022-12-07T09:27:37;5.70;99.90
52615;DHT22;38508;53.158;6.614;2022-12-07T09:30:04;5.90;99.90
52615;DHT22;38508;53.158;6.614;2022-12-07T09:32:29;5.90;99.90
52615;DHT22;38508;53.158;6.614;2022-12-07T09:34:55;6.00;99.90
52615;DHT22;38508;53.158;6.614;2022-12-07T09:37:21;6.10;99.90
52615;DHT22;38508;53.158;6.614;2022-12-07T09:39:47;6.30;99.90
52615;DHT22;38508;53.158;6.614;2022-12-07T09:42:36;6.30;99.90
52615;DHT22;38508;53.158;6.614;2022-12-07T09:45:06;6.20;99.90
52615;DHT22;38508;53.158;6.614;2022-12-07T09:47:33;6.10;99.90
52615;DHT22;38508;53.158;6.614;2022-12-07T09:50:12;6.10;99.90
52615;DHT22;38508;53.158;6.614;2022-12-07T09:52:38;5.90;99.90
52615;DHT22;38508;53.158;6.614;2022-12-07T09:55:13;5.70;99.90
52615;DHT22;38508;53.158;6.614;2022-12-07T09:57:39;5.80;99.90
52615;DHT22;38508;53.158;6.614;2022-12-07T10:00:15;5.80;99.90
52615;DHT22;38508;53.158;6.614;2022-12-07T10:02:58;6.00;99.90
52615;DHT22;38508;53.158;6.614;2022-12-07T10:05:30;6.10;99.90
52615;DHT22;38508;53.158;6.614;2022-12-07T10:07:56;6.20;99.90
52615;DHT22;38508;53.158;6.614;2022-12-07T10:10:34;6.30;99.90
52615;DHT22;38508;53.158;6.614;2022-12-07T10:13:15;6.30;99.90
52615;DHT22;38508;53.158;6.614;2022-12-07T10:15:45;6.40;99.90
52615;DHT22;38508;53.158;6.614;2022-12-07T10:18:38;6.30;99.90
52615;DHT22;38508;53.158;6.614;2022-12-07T10:21:26;6.20;99.90
52615;DHT22;38508;53.158;6.614;2022-12-07T10:26:40;6.90;99.90
52615;DHT22;38508;53.158;6.614;2022-12-07T10:29:20;6.90;99.90
52615;DHT22;38508;53.158;6.614;2022-12-07T10:34:29;7.10;99.90
52615;DHT22;38508;53.158;6.614;2022-12-07T10:37:17;7.00;99.90
52615;DHT22;38508;53.158;6.614;2022-12-07T10:42:22;7.40;99.90
52615;DHT22;38508;53.158;6.614;2022-12-07T10:44:50;7.50;99.90
52615;DHT22;38508;53.158;6.614;2022-12-07T10:47:29;7.60;99.90
52615;DHT22;38508;53.158;6.614;2022-12-07T10:50:14;7.80;99.90
52615;DHT22;38508;53.158;6.614;2022-12-07T11:04:15;7.70;99.90
52615;DHT22;38508;53.158;6.614;2022-12-07T11:07:12;7.70;99.90
52615;DHT22;38508;53.158;6.614;2022-12-07T11:12:58;7.50;99.90
52615;DHT22;38508;53.158;6.614;2022-12-07T11:18:21;7.50;99.90
52615;DHT22;38508;53.158;6.614;2022-12-07T11:23:49;6.20;99.90
52615;DHT22;38508;53.158;6.614;2022-12-07T11:37:01;6.10;99.90
52615;DHT22;38508;53.158;6.614;2022-12-07T11:42:00;6.40;99.90
52615;DHT22;38508;53.158;6.614;2022-12-07T11:45:00;6.60;99.90
52615;DHT22;38508;53.158;6.614;2022-12-07T11:47:34;6.80;99.90
52615;DHT22;38508;53.158;6.614;2022-12-07T11:50:27;6.80;99.90
52615;DHT22;38508;53.158;6.614;2022-12-07T11:55:56;6.90;99.90
52615;DHT22;38508;53.158;6.614;2022-12-07T12:01:15;6.80;99.90
52615;DHT22;38508;53.158;6.614;2022-12-07T12:03:47;6.90;99.90
52615;DHT22;38508;53.158;6.614;2022-12-07T12:06:14;7.10;99.90
52615;DHT22;38508;53.158;6.614;2022-12-07T12:17:21;8.10;99.90
52615;DHT22;38508;53.158;6.614;2022-12-07T12:22:46;7.60;99.90
52615;DHT22;38508;53.158;6.614;2022-12-07T12:25:26;7.60;99.90
52615;DHT22;38508;53.158;6.614;2022-12-07T12:27:55;7.30;99.90
52615;DHT22;38508;53.158;6.614;2022-12-07T12:30:38;7.50;99.90
52615;DHT22;38508;53.158;6.614;2022-12-07T12:33:27;7.60;99.90
52615;DHT22;38508;53.158;6.614;2022-12-07T12:36:23;7.50;99.90
52615;DHT22;38508;53.158;6.614;2022-12-07T12:51:46;7.50;99.90
52615;DHT22;38508;53.158;6.614;2022-12-07T12:56:54;7.90;99.90
52615;DHT22;38508;53.158;6.614;2022-12-07T13:01:48;7.50;99.90
52615;DHT22;38508;53.158;6.614;2022-12-07T13:04:27;7.50;99.90
52615;DHT22;38508;53.158;6.614;2022-12-07T13:06:53;7.30;99.90
52615;DHT22;38508;53.158;6.614;2022-12-07T13:09:26;7.00;99.90
52615;DHT22;38508;53.158;6.614;2022-12-07T13:11:59;6.80;99.90
52615;DHT22;38508;53.158;6.614;2022-12-07T13:14:58;6.50;99.90
52615;DHT22;38508;53.158;6.614;2022-12-07T13:20:03;6.60;99.90
52615;DHT22;38508;53.158;6.614;2022-12-07T13:27:46;6.50;99.90
52615;DHT22;38508;53.158;6.614;2022-12-07T13:30:19;6.60;99.90
52615;DHT22;38508;53.158;6.614;2022-12-07T13:32:58;6.40;99.90
52615;DHT22;38508;53.158;6.614;2022-12-07T13:35:33;6.40;99.90
52615;DHT22;38508;53.158;6.614;2022-12-07T13:38:01;6.50;99.90
52615;DHT22;38508;53.158;6.614;2022-12-07T13:40:28;6.60;99.90
52615;DHT22;38508;53.158;6.614;2022-12-07T13:42:59;6.70;99.90
52615;DHT22;38508;53.158;6.614;2022-12-07T13:45:27;6.70;99.90
52615;DHT22;38508;53.158;6.614;2022-12-07T13:48:47;6.70;99.90
52615;DHT22;38508;53.158;6.614;2022-12-07T13:54:21;6.30;99.90
52615;DHT22;38508;53.158;6.614;2022-12-07T13:56:40;6.00;99.90
52615;DHT22;38508;53.158;6.614;2022-12-07T13:59:14;5.60;99.90
52615;DHT22;38508;53.158;6.614;2022-12-07T14:01:41;5.70;99.90
52615;DHT22;38508;53.158;6.614;2022-12-07T14:04:35;5.80;99.90
52615;DHT22;38508;53.158;6.614;2022-12-07T14:07:23;5.90;99.90
52615;DHT22;38508;53.158;6.614;2022-12-07T14:09:57;6.00;99.90
52615;DHT22;38508;53.158;6.614;2022-12-07T14:12:24;6.20;99.90
52615;DHT22;38508;53.158;6.614;2022-12-07T14:14:50;6.30;99.90
52615;DHT22;38508;53.158;6.614;2022-12-07T14:17:21;6.40;99.90
52615;DHT22;38508;53.158;6.614;2022-12-07T14:20:01;6.50;99.90
52615;DHT22;38508;53.158;6.614;2022-12-07T14:22:33;6.60;99.90
52615;DHT22;38508;53.158;6.614;2022-12-07T14:25:20;6.50;99.90
52615;DHT22;38508;53.158;6.614;2022-12-07T14:27:55;6.40;99.90
52615;DHT22;38508;53.158;6.614;2022-12-07T14:30:23;6.00;99.90
52615;DHT22;38508;53.158;6.614;2022-12-07T14:32:58;5.90;99.90
52615;DHT22;38508;53.158;6.614;2022-12-07T14:35:24;6.10;99.90
52615;DHT22;38508;53.158;6.614;2022-12-07T14:37:50;6.10;99.90
52615;DHT22;38508;53.158;6.614;2022-12-07T14:40:25;6.10;99.90
52615;DHT22;38508;53.158;6.614;2022-12-07T14:43:04;5.80;99.90
52615;DHT22;38508;53.158;6.614;2022-12-07T14:45:30;5.90;99.90
52615;DHT22;38508;53.158;6.614;2022-12-07T14:47:56;5.90;99.90
52615;DHT22;38508;53.158;6.614;2022-12-07T14:50:22;6.00;99.90
52615;DHT22;38508;53.158;6.614;2022-12-07T14:53:06;5.90;99.90
52615;DHT22;38508;53.158;6.614;2022-12-07T14:55:35;5.80;99.90
52615;DHT22;38508;53.158;6.614;2022-12-07T14:58:00;5.70;99.90
52615;DHT22;38508;53.158;6.614;2022-12-07T15:00:27;5.40;99.90
52615;DHT22;38508;53.158;6.614;2022-12-07T15:02:53;5.50;99.90
52615;DHT22;38508;53.158;6.614;2022-12-07T15:05:20;5.60;99.90
52615;DHT22;38508;53.158;6.614;2022-12-07T15:07:47;5.70;99.90
52615;DHT22;38508;53.158;6.614;2022-12-07T15:12:40;5.90;99.90
52615;DHT22;38508;53.158;6.614;2022-12-07T15:15:07;6.00;99.90
52615;DHT22;38508;53.158;6.614;2022-12-07T15:17:33;6.00;99.90
52615;DHT22;38508;53.158;6.614;2022-12-07T15:19:59;6.10;99.90
52615;DHT22;38508;53.158;6.614;2022-12-07T15:22:25;6.10;99.90
52615;DHT22;38508;53.158;6.614;2022-12-07T15:24:50;6.10;99.90
52615;DHT22;38508;53.158;6.614;2022-12-07T15:27:16;6.10;99.90
52615;DHT22;38508;53.158;6.614;2022-12-07T15:29:42;5.90;99.90
52615;DHT22;38508;53.158;6.614;2022-12-07T15:32:08;5.90;99.90
52615;DHT22;38508;53.158;6.614;2022-12-07T15:34:34;5.60;99.90
52615;DHT22;38508;53.158;6.614;2022-12-07T15:37:00;5.50;99.90
52615;DHT22;38508;53.158;6.614;2022-12-07T15:39:25;5.60;99.90
52615;DHT22;38508;53.158;6.614;2022-12-07T15:41:51;5.50;99.90
52615;DHT22;38508;53.158;6.614;2022-12-07T15:44:17;5.40;99.90
52615;DHT22;38508;53.158;6.614;2022-12-07T15:47:01;5.40;99.90
52615;DHT22;38508;53.158;6.614;2022-12-07T15:49:27;5.50;99.90
52615;DHT22;38508;53.158;6.614;2022-12-07T15:51:53;5.50;99.90
52615;DHT22;38508;53.158;6.614;2022-12-07T15:54:22;5.50;99.90
52615;DHT22;38508;53.158;6.614;2022-12-07T15:56:48;5.60;99.90
52615;DHT22;38508;53.158;6.614;2022-12-07T15:59:14;5.80;99.90
52615;DHT22;38508;53.158;6.614;2022-12-07T16:01:40;6.00;99.90
52615;DHT22;38508;53.158;6.614;2022-12-07T16:04:05;5.90;99.90
52615;DHT22;38508;53.158;6.614;2022-12-07T16:06:31;5.90;99.90
52615;DHT22;38508;53.158;6.614;2022-12-07T16:08:57;5.70;99.90
52615;DHT22;38508;53.158;6.614;2022-12-07T16:11:23;5.70;99.90
52615;DHT22;38508;53.158;6.614;2022-12-07T16:13:49;5.60;99.90
52615;DHT22;38508;53.158;6.614;2022-12-07T16:16:16;5.60;99.90
52615;DHT22;38508;53.158;6.614;2022-12-07T16:18:44;5.40;99.90
52615;DHT22;38508;53.158;6.614;2022-12-07T16:21:10;5.30;99.90
52615;DHT22;38508;53.158;6.614;2022-12-07T16:23:37;5.20;99.90
52615;DHT22;38508;53.158;6.614;2022-12-07T16:26:15;5.20;99.90
52615;DHT22;38508;53.158;6.614;2022-12-07T16:28:41;5.20;99.90
52615;DHT22;38508;53.158;6.614;2022-12-07T16:31:13;5.20;99.90
52615;DHT22;38508;53.158;6.614;2022-12-07T16:33:39;5.10;99.90
52615;DHT22;38508;53.158;6.614;2022-12-07T16:36:07;5.20;99.90
52615;DHT22;38508;53.158;6.614;2022-12-07T16:38:33;5.10;99.90
52615;DHT22;38508;53.158;6.614;2022-12-07T16:40:59;5.10;99.90
52615;DHT22;38508;53.158;6.614;2022-12-07T16:43:25;5.10;99.90
52615;DHT22;38508;53.158;6.614;2022-12-07T16:45:51;5.10;99.90
52615;DHT22;38508;53.158;6.614;2022-12-07T16:48:17;4.90;99.90
52615;DHT22;38508;53.158;6.614;2022-12-07T16:50:44;4.90;99.90
52615;DHT22;38508;53.158;6.614;2022-12-07T16:53:11;4.80;99.90
52615;DHT22;38508;53.158;6.614;2022-12-07T16:55:41;4.80;99.90
52615;DHT22;38508;53.158;6.614;2022-12-07T16:58:07;4.70;99.90
52615;DHT22;38508;53.158;6.614;2022-12-07T17:00:36;4.70;99.90
52615;DHT22;38508;53.158;6.614;2022-12-07T17:03:02;4.40;99.90
52615;DHT22;38508;53.158;6.614;2022-12-07T17:05:28;4.50;99.90
52615;DHT22;38508;53.158;6.614;2022-12-07T17:07:55;4.50;99.90
52615;DHT22;38508;53.158;6.614;2022-12-07T17:10:22;4.40;99.90
52615;DHT22;38508;53.158;6.614;2022-12-07T17:12:48;4.50;99.90
52615;DHT22;38508;53.158;6.614;2022-12-07T17:15:24;4.60;99.90
52615;DHT22;38508;53.158;6.614;2022-12-07T17:17:55;4.90;99.90
52615;DHT22;38508;53.158;6.614;2022-12-07T17:20:23;4.90;99.90
52615;DHT22;38508;53.158;6.614;2022-12-07T17:22:50;5.00;99.90
52615;DHT22;38508;53.158;6.614;2022-12-07T17:25:16;5.00;99.90
52615;DHT22;38508;53.158;6.614;2022-12-07T17:27:43;5.10;99.90
52615;DHT22;38508;53.158;6.614;2022-12-07T17:30:10;5.10;99.90
52615;DHT22;38508;53.158;6.614;2022-12-07T17:32:36;5.10;99.90
52615;DHT22;38508;53.158;6.614;2022-12-07T17:35:02;5.30;99.90
52615;DHT22;38508;53.158;6.614;2022-12-07T17:37:28;5.30;99.90
52615;DHT22;38508;53.158;6.614;2022-12-07T17:39:55;5.30;99.90
52615;DHT22;38508;53.158;6.614;2022-12-07T17:42:26;5.00;99.90
52615;DHT22;38508;53.158;6.614;2022-12-07T17:45:02;4.90;99.90
52615;DHT22;38508;53.158;6.614;2022-12-07T17:47:28;4.70;99.90
52615;DHT22;38508;53.158;6.614;2022-12-07T17:49:53;4.70;99.90
52615;DHT22;38508;53.158;6.614;2022-12-07T17:52:19;4.70;99.90
52615;DHT22;38508;53.158;6.614;2022-12-07T17:55:04;4.70;99.90
52615;DHT22;38508;53.158;6.614;2022-12-07T17:57:30;4.60;99.90
52615;DHT22;38508;53.158;6.614;2022-12-07T17:59:56;4.70;99.90
52615;DHT22;38508;53.158;6.614;2022-12-07T18:02:22;4.70;99.90
52615;DHT22;38508;53.158;6.614;2022-12-07T18:04:48;4.90;99.90
52615;DHT22;38508;53.158;6.614;2022-12-07T18:07:13;4.90;99.90